createdAt,value
2022-09-28T00:00:58.182Z,92.46
2022-09-28T00:03:25.830Z,92.90
2022-09-28T00:05:53.479Z,93.16
2022-09-28T00:08:21.129Z,92.99
2022-09-28T00:10:56.991Z,93.18
2022-09-28T00:13:25.616Z,92.45
2022-09-28T00:16:04.943Z,92.98
2022-09-28T00:18:33.164Z,93.29
2022-09-28T00:21:01.192Z,92.97
2022-09-28T00:23:28.835Z,93.27
2022-09-28T00:25:57.855Z,92.35
2022-09-28T00:28:25.449Z,92.95
2022-09-28T00:30:56.494Z,92.69
2022-09-28T00:33:24.444Z,92.84
2022-09-28T00:35:57.128Z,93.24
2022-09-28T00:38:28.327Z,92.60
2022-09-28T00:40:57.480Z,92.25
2022-09-28T00:43:25.633Z,93.14
2022-09-28T00:45:59.831Z,93.14
2022-09-28T00:48:30.530Z,92.60
2022-09-28T00:51:00.421Z,93.00
2022-09-28T00:53:32.706Z,93.12
2022-09-28T00:56:07.418Z,93.43
2022-09-28T00:58:40.705Z,92.94
2022-09-28T01:01:08.714Z,92.94
2022-09-28T01:03:36.474Z,93.09
2022-09-28T01:06:06.133Z,92.51
2022-09-28T01:08:36.168Z,93.07
2022-09-28T01:11:05.425Z,93.03
2022-09-28T01:13:34.360Z,92.98
2022-09-28T01:16:11.066Z,93.39
2022-09-28T01:18:48.650Z,92.76
2022-09-28T01:21:19.733Z,92.87
2022-09-28T01:24:09.595Z,92.84
2022-09-28T01:27:02.278Z,93.35
2022-09-28T01:29:58.036Z,92.70
2022-09-28T01:32:36.466Z,93.00
2022-09-28T01:35:08.836Z,93.26
2022-09-28T01:37:43.173Z,93.32
2022-09-28T01:40:12.957Z,93.13
2022-09-28T01:42:44.604Z,93.08
2022-09-28T01:45:17.922Z,93.44
2022-09-28T01:47:47.760Z,93.35
2022-09-28T01:50:19.090Z,93.18
2022-09-28T01:52:52.747Z,93.22
2022-09-28T01:55:27.451Z,92.97
2022-09-28T01:58:03.278Z,92.94
2022-09-28T02:00:31.313Z,93.23
2022-09-28T02:03:03.095Z,93.15
2022-09-28T02:05:33.909Z,93.22
2022-09-28T02:08:07.758Z,92.68
2022-09-28T02:10:42.782Z,93.30
2022-09-28T02:13:13.446Z,93.14
2022-09-28T02:15:46.643Z,93.34
2022-09-28T02:18:14.698Z,93.18
2022-09-28T02:20:47.211Z,92.81
2022-09-28T02:23:17.338Z,92.98
2022-09-28T02:25:49.780Z,92.73
2022-09-28T02:28:18.883Z,92.86
2022-09-28T02:30:47.103Z,93.09
2022-09-28T02:33:16.465Z,93.29
2022-09-28T02:35:44.439Z,93.03
2022-09-28T02:38:13.364Z,93.32
2022-09-28T02:40:44.214Z,92.95
2022-09-28T02:43:19.442Z,93.03
2022-09-28T02:45:57.563Z,93.15
2022-09-28T02:48:43.878Z,93.46
2022-09-28T02:51:23.908Z,93.56
2022-09-28T02:54:07.840Z,93.31
2022-09-28T02:56:49.701Z,93.53
2022-09-28T02:59:32.185Z,92.99
2022-09-28T03:02:07.637Z,93.09
2022-09-28T03:04:40.569Z,92.92
2022-09-28T03:07:15.464Z,93.04
2022-09-28T03:09:50.588Z,93.34
2022-09-28T03:12:20.978Z,93.52
2022-09-28T03:14:48.673Z,93.42
2022-09-28T03:17:17.649Z,93.31
2022-09-28T03:19:45.266Z,93.52
2022-09-28T03:22:12.878Z,93.31
2022-09-28T03:24:40.468Z,93.25
2022-09-28T03:27:09.356Z,93.49
2022-09-28T03:29:39.002Z,93.42
2022-09-28T03:32:06.642Z,93.44
2022-09-28T03:34:35.656Z,93.21
2022-09-28T03:37:03.338Z,93.66
2022-09-28T03:39:30.976Z,93.45
2022-09-28T03:42:01.082Z,93.63
2022-09-28T03:44:28.702Z,93.56
2022-09-28T03:46:56.537Z,93.71
2022-09-28T03:49:24.154Z,93.38
2022-09-28T03:51:53.112Z,93.53
2022-09-28T03:54:20.781Z,93.43
2022-09-28T03:56:48.411Z,93.75
2022-09-28T03:59:16.163Z,93.59
2022-09-28T04:01:43.870Z,93.83
2022-09-28T04:04:12.694Z,93.87
2022-09-28T04:06:40.407Z,93.42
2022-09-28T04:09:09.573Z,93.28
2022-09-28T04:11:53.120Z,93.27
2022-09-28T04:14:24.998Z,93.54
2022-09-28T04:16:54.809Z,93.83
2022-09-28T04:19:22.818Z,93.55
2022-09-28T04:21:51.886Z,93.82
2022-09-28T04:24:21.390Z,93.79
2022-09-28T04:26:49.473Z,93.63
2022-09-28T04:29:16.196Z,93.72
2022-09-28T04:31:47.181Z,93.83
2022-09-28T04:34:17.325Z,93.74
2022-09-28T04:36:45.410Z,93.57
2022-09-28T04:39:14.204Z,93.89
2022-09-28T04:41:43.729Z,93.79
2022-09-28T04:44:11.381Z,93.84
2022-09-28T04:46:38.978Z,93.55
2022-09-28T04:49:06.581Z,93.75
2022-09-28T04:51:34.285Z,93.84
2022-09-28T04:54:01.905Z,93.83
2022-09-28T04:56:29.535Z,93.51
2022-09-28T04:58:58.534Z,94.00
2022-09-28T05:01:26.258Z,93.92
2022-09-28T05:03:54.083Z,93.67
2022-09-28T05:06:22.654Z,93.63
2022-09-28T05:08:50.265Z,93.79
2022-09-28T05:11:19.802Z,93.87
2022-09-28T05:13:48.469Z,94.15
2022-09-28T05:16:17.638Z,93.54
2022-09-28T05:18:45.297Z,93.87
2022-09-28T05:21:14.698Z,93.68
2022-09-28T05:23:46.868Z,93.69
2022-09-28T05:26:14.786Z,93.69
2022-09-28T05:28:42.521Z,94.06
2022-09-28T05:31:10.144Z,93.91
2022-09-28T05:33:39.524Z,94.12
2022-09-28T05:36:10.114Z,94.21
2022-09-28T05:38:37.780Z,93.99
2022-09-28T05:41:06.741Z,94.04
2022-09-28T05:43:35.189Z,94.15
2022-09-28T05:46:02.897Z,94.18
2022-09-28T05:48:30.571Z,94.12
2022-09-28T05:50:59.678Z,93.90
2022-09-28T05:53:27.358Z,94.01
2022-09-28T05:55:58.656Z,94.22
2022-09-28T05:58:26.303Z,94.21
2022-09-28T06:00:55.960Z,93.95
2022-09-28T06:03:23.832Z,94.30
2022-09-28T06:05:51.613Z,94.11
2022-09-28T06:08:20.672Z,94.27
2022-09-28T06:10:48.578Z,93.78
2022-09-28T06:13:16.211Z,94.08
2022-09-28T06:15:44.816Z,94.31
2022-09-28T06:18:14.819Z,93.95
2022-09-28T06:20:42.627Z,93.96
2022-09-28T06:23:10.601Z,94.03
2022-09-28T06:25:40.090Z,93.94
2022-09-28T06:28:10.083Z,93.77
2022-09-28T06:30:39.132Z,93.60
2022-09-28T06:33:08.456Z,93.42
2022-09-28T06:35:36.522Z,93.48
2022-09-28T06:38:04.453Z,93.81
2022-09-28T06:40:32.320Z,93.35
2022-09-28T06:43:03.228Z,93.22
2022-09-28T06:45:31.571Z,93.90
2022-09-28T06:48:01.273Z,93.31
2022-09-28T06:50:32.284Z,94.10
2022-09-28T06:53:00.732Z,93.98
2022-09-28T06:55:29.053Z,93.96
2022-09-28T06:58:01.945Z,94.80
2022-09-28T07:00:31.119Z,94.72
2022-09-28T07:02:58.986Z,94.35
2022-09-28T07:05:28.729Z,94.55
2022-09-28T07:07:56.996Z,94.76
2022-09-28T07:10:25.267Z,94.54
2022-09-28T07:12:52.896Z,94.30
2022-09-28T07:15:22.668Z,94.67
2022-09-28T07:17:59.695Z,94.87
2022-09-28T07:20:30.442Z,94.96
2022-09-28T07:23:12.344Z,95.25
2022-09-28T07:25:45.613Z,94.99
2022-09-28T07:28:13.645Z,94.76
2022-09-28T07:30:43.228Z,94.91
2022-09-28T07:33:14.345Z,94.87
2022-09-28T07:35:42.975Z,94.90
2022-09-28T07:38:12.009Z,95.10
2022-09-28T07:40:57.070Z,95.24
2022-09-28T07:43:24.852Z,95.55
2022-09-28T07:45:55.624Z,95.61
2022-09-28T07:48:23.989Z,95.78
2022-09-28T07:50:52.238Z,95.96
2022-09-28T07:53:20.206Z,95.82
2022-09-28T07:55:52.086Z,95.96
2022-09-28T07:58:20.645Z,95.69
2022-09-28T08:00:48.991Z,95.91
2022-09-28T08:03:19.054Z,95.51
2022-09-28T08:05:47.447Z,95.47
2022-09-28T08:08:15.659Z,95.59
2022-09-28T08:10:47.009Z,95.80
2022-09-28T08:13:16.666Z,95.46
2022-09-28T08:15:44.358Z,95.45
2022-09-28T08:18:11.952Z,95.37
2022-09-28T08:20:58.289Z,95.39
2022-09-28T08:23:26.069Z,95.05
2022-09-28T08:25:54.883Z,95.51
2022-09-28T08:28:24.205Z,95.43
2022-09-28T08:30:52.078Z,95.47
2022-09-28T08:33:21.173Z,94.27
2022-09-28T08:35:58.087Z,94.43
2022-09-28T08:38:26.663Z,94.76
2022-09-28T08:41:04.510Z,94.77
2022-09-28T08:43:58.612Z,94.61
2022-09-28T08:46:30.254Z,94.18
2022-09-28T08:51:59.664Z,94.14
2022-09-28T08:54:36.312Z,93.83
2022-09-28T08:57:08.362Z,93.76
2022-09-28T08:59:47.594Z,93.59
2022-09-28T09:02:19.470Z,93.05
2022-09-28T09:04:47.209Z,93.23
2022-09-28T09:07:39.371Z,92.99
2022-09-28T09:10:18.421Z,92.46
2022-09-28T09:12:59.832Z,91.93
2022-09-28T09:15:40.275Z,91.09
2022-09-28T09:18:22.310Z,90.79
2022-09-28T09:20:54.568Z,90.36
2022-09-28T09:23:35.190Z,89.64
2022-09-28T09:26:12.810Z,89.42
2022-09-28T09:29:14.699Z,89.10
2022-09-28T09:31:59.608Z,88.95
2022-09-28T09:34:49.904Z,89.09
2022-09-28T09:37:34.410Z,90.00
2022-09-28T09:40:23.197Z,89.27
2022-09-28T09:43:01.376Z,89.07
2022-09-28T09:45:40.959Z,88.47
2022-09-28T09:48:13.988Z,87.63
2022-09-28T09:50:46.802Z,87.32
2022-09-28T09:53:21.024Z,86.93
2022-09-28T09:55:57.192Z,87.06
2022-09-28T09:58:30.264Z,86.55
2022-09-28T10:01:06.820Z,86.15
2022-09-28T10:03:37.773Z,85.39
2022-09-28T10:06:10.350Z,84.64
2022-09-28T10:08:43.074Z,83.78
2022-09-28T10:11:17.542Z,82.52
2022-09-28T10:13:45.242Z,82.07
2022-09-28T10:16:12.775Z,71.05
2022-09-28T10:18:40.488Z,80.28
2022-09-28T10:21:08.119Z,67.98
2022-09-28T10:23:38.869Z,79.83
2022-09-28T10:26:13.395Z,79.58
2022-09-28T10:28:49.372Z,79.27
2022-09-28T10:31:37.711Z,75.86
2022-09-28T10:34:05.604Z,79.74
2022-09-28T10:36:38.357Z,79.39
2022-09-28T10:39:06.978Z,78.66
2022-09-28T10:41:34.593Z,78.03
2022-09-28T10:44:08.692Z,67.46
2022-09-28T10:46:38.646Z,76.93
2022-09-28T10:49:13.377Z,76.21
2022-09-28T10:51:41.592Z,76.38
2022-09-28T10:54:15.744Z,76.80
2022-09-28T10:56:43.753Z,77.47
2022-09-28T10:59:35.887Z,76.29
2022-09-28T11:02:13.421Z,76.14
2022-09-28T11:04:43.930Z,74.33
2022-09-28T11:07:18.807Z,72.85
2022-09-28T11:09:49.842Z,72.86
2022-09-28T11:12:22.654Z,72.59
2022-09-28T11:14:58.403Z,71.93
2022-09-28T11:17:29.337Z,72.27
2022-09-28T11:19:58.107Z,70.44
2022-09-28T11:22:30.175Z,68.47
2022-09-28T11:25:24.367Z,63.75
2022-09-28T11:28:01.247Z,66.38
2022-09-28T11:30:33.851Z,65.91
2022-09-28T11:33:12.727Z,64.17
2022-09-28T11:35:47.413Z,61.21
2022-09-28T11:38:31.244Z,61.66
2022-09-28T11:41:10.933Z,60.07
2022-09-28T11:44:01.581Z,57.16
2022-09-28T11:46:36.649Z,58.06
2022-09-28T11:49:12.790Z,59.14
2022-09-28T11:51:42.195Z,60.56
2022-09-28T11:54:17.660Z,61.39
2022-09-28T11:56:48.806Z,62.59
2022-09-28T11:59:21.729Z,63.40
2022-09-28T12:01:54.368Z,63.87
2022-09-28T12:04:27.463Z,64.68
2022-09-28T12:07:01.049Z,64.89
2022-09-28T12:09:35.886Z,65.04
2022-09-28T12:12:10.378Z,65.44
2022-09-28T12:14:41.185Z,66.38
2022-09-28T12:17:20.227Z,65.47
2022-09-28T12:19:51.744Z,66.12
2022-09-28T12:22:25.218Z,64.39
2022-09-28T12:24:56.522Z,64.39
2022-09-28T12:27:32.542Z,63.96
2022-09-28T12:30:05.299Z,64.74
2022-09-28T12:32:41.013Z,64.58
2022-09-28T12:35:14.089Z,65.43
2022-09-28T12:38:08.681Z,61.53
2022-09-28T12:40:42.687Z,66.96
2022-09-28T12:43:29.055Z,66.39
2022-09-28T12:46:23.587Z,66.40
2022-09-28T12:50:13.893Z,61.55
2022-09-28T12:52:00.294Z,70.42
2022-09-28T12:54:53.255Z,69.84
2022-09-28T12:57:40.258Z,71.30
2022-09-28T13:00:12.917Z,72.05
2022-09-28T13:03:02.931Z,71.54
2022-09-28T13:06:06.624Z,72.13
2022-09-28T13:08:44.391Z,72.64
2022-09-28T13:11:25.166Z,72.71
2022-09-28T13:14:03.213Z,72.86
2022-09-28T13:16:36.944Z,73.19
2022-09-28T13:19:13.091Z,73.45
2022-09-28T13:21:50.517Z,73.62
2022-09-28T13:24:34.078Z,73.91
2022-09-28T13:27:06.334Z,73.98
2022-09-28T13:29:34.936Z,74.35
2022-09-28T13:32:04.346Z,74.70
2022-09-28T13:34:37.028Z,74.79
2022-09-28T13:37:22.039Z,73.25
2022-09-28T13:39:52.717Z,74.78
2022-09-28T13:42:35.128Z,74.83
2022-09-28T13:45:27.300Z,74.23
2022-09-28T13:48:12.808Z,74.24
2022-09-28T13:51:05.175Z,73.64
2022-09-28T13:53:48.675Z,72.52
2022-09-28T13:56:29.600Z,71.21
2022-09-28T13:59:02.781Z,70.96
2022-09-28T14:01:37.029Z,71.20
2022-09-28T14:04:14.186Z,69.26
2022-09-28T14:06:47.513Z,68.99
2022-09-28T14:09:45.473Z,68.93
2022-09-28T14:12:32.078Z,67.52
2022-09-28T14:15:00.324Z,69.73
2022-09-28T14:18:00.116Z,65.16
2022-09-28T14:20:31.376Z,70.37
2022-09-28T14:23:38.618Z,67.57
2022-09-28T14:26:48.597Z,68.01
2022-09-28T14:29:28.652Z,70.27
2022-09-28T14:31:58.176Z,70.85
2022-09-28T14:34:34.450Z,70.70
2022-09-28T14:37:22.608Z,71.06
2022-09-28T14:40:07.870Z,70.75
2022-09-28T14:42:37.087Z,71.03
2022-09-28T14:45:33.826Z,69.68
2022-09-28T14:48:21.366Z,69.61
2022-09-28T14:50:50.025Z,71.35
2022-09-28T14:53:25.663Z,71.33
2022-09-28T14:55:58.815Z,72.05
2022-09-28T14:58:29.994Z,72.14
2022-09-28T15:01:03.919Z,71.93
2022-09-28T15:03:36.392Z,72.29
2022-09-28T15:06:04.036Z,72.57
2022-09-28T15:08:40.095Z,72.47
2022-09-28T15:11:14.749Z,72.89
2022-09-28T15:13:44.458Z,73.04
2022-09-28T15:16:15.025Z,73.13
2022-09-28T15:19:04.900Z,72.71
2022-09-28T15:21:36.335Z,73.44
2022-09-28T15:24:04.189Z,73.55
2022-09-28T15:26:33.468Z,71.95
2022-09-28T15:29:04.020Z,73.62
2022-09-28T15:31:36.313Z,73.30
2022-09-28T15:34:21.289Z,73.41
2022-09-28T15:36:49.983Z,73.27
2022-09-28T15:39:22.930Z,72.98
2022-09-28T15:41:51.997Z,72.64
2022-09-28T15:44:32.395Z,72.47
2022-09-28T15:47:11.147Z,72.51
2022-09-28T15:49:44.033Z,72.93
2022-09-28T15:52:27.917Z,72.79
2022-09-28T15:54:56.352Z,73.25
2022-09-28T15:57:37.288Z,72.95
2022-09-28T16:00:22.696Z,73.13
2022-09-28T16:03:05.437Z,73.11
2022-09-28T16:05:39.182Z,73.42
2022-09-28T16:08:25.574Z,72.97
2022-09-28T16:10:58.609Z,72.67
2022-09-28T16:13:26.811Z,72.29
2022-09-28T16:16:00.934Z,72.01
2022-09-28T16:18:30.726Z,72.47
2022-09-28T16:21:26.967Z,71.56
2022-09-28T16:23:57.477Z,71.84
2022-09-28T16:26:34.337Z,71.44
2022-09-28T16:29:09.390Z,71.03
2022-09-28T16:31:41.417Z,71.00
2022-09-28T16:34:17.698Z,70.87
2022-09-28T16:36:47.922Z,71.08
2022-09-28T16:39:17.400Z,71.28
2022-09-28T16:41:49.641Z,71.12
2022-09-28T16:44:23.376Z,71.63
2022-09-28T16:46:55.142Z,71.81
2022-09-28T16:49:25.477Z,72.14
2022-09-28T16:51:53.923Z,72.50
2022-09-28T16:54:41.562Z,72.82
2022-09-28T16:57:12.392Z,73.27
2022-09-28T16:59:40.292Z,73.46
2022-09-28T17:02:35.341Z,71.34
2022-09-28T17:05:07.017Z,73.72
2022-09-28T17:07:34.992Z,73.86
2022-09-28T17:10:02.596Z,71.80
2022-09-28T17:12:30.208Z,74.26
2022-09-28T17:14:58.606Z,74.58
2022-09-28T17:17:29.891Z,74.54
2022-09-28T17:19:57.575Z,74.79
2022-09-28T17:22:25.191Z,74.87
2022-09-28T17:24:52.810Z,74.95
2022-09-28T17:27:21.601Z,75.18
2022-09-28T17:29:49.239Z,75.22
2022-09-28T17:32:19.608Z,75.33
2022-09-28T17:35:00.772Z,75.56
2022-09-28T17:37:36.158Z,75.57
2022-09-28T17:40:03.946Z,75.75
2022-09-28T17:42:31.545Z,75.93
2022-09-28T17:44:59.160Z,76.01
2022-09-28T17:47:29.049Z,75.82
2022-09-28T17:50:01.198Z,76.16
2022-09-28T17:52:28.813Z,75.98
2022-09-28T17:54:56.432Z,76.13
2022-09-28T17:57:24.041Z,76.39
2022-09-28T17:59:52.058Z,76.29
2022-09-28T18:02:19.570Z,75.08
2022-09-28T18:04:52.202Z,76.55
2022-09-28T18:07:21.398Z,77.38
2022-09-28T18:09:53.821Z,77.20
2022-09-28T18:12:21.449Z,77.36
2022-09-28T18:14:49.104Z,77.83
2022-09-28T18:17:16.734Z,78.25
2022-09-28T18:19:44.474Z,78.15
2022-09-28T18:22:12.115Z,78.04
2022-09-28T18:24:41.160Z,78.01
2022-09-28T18:27:08.839Z,78.40
2022-09-28T18:29:36.654Z,78.36
2022-09-28T18:32:04.857Z,78.18
2022-09-28T18:34:35.733Z,78.58
2022-09-28T18:37:03.483Z,78.05
2022-09-28T18:39:31.120Z,78.32
2022-09-28T18:42:00.153Z,77.99
2022-09-28T18:44:27.797Z,78.00
2022-09-28T18:46:55.473Z,77.96
2022-09-28T18:49:23.921Z,78.21
2022-09-28T18:51:51.621Z,78.23
2022-09-28T18:54:19.568Z,78.52
2022-09-28T18:56:47.094Z,77.79
2022-09-28T18:59:16.240Z,78.47
2022-09-28T19:01:44.057Z,78.87
2022-09-28T19:04:13.553Z,78.64
2022-09-28T19:06:44.399Z,78.93
2022-09-28T19:09:12.456Z,78.75
2022-09-28T19:11:40.182Z,78.51
2022-09-28T19:14:07.808Z,78.60
2022-09-28T19:16:36.801Z,78.98
2022-09-28T19:19:04.499Z,78.50
2022-09-28T19:21:32.153Z,78.93
2022-09-28T19:24:01.256Z,78.39
2022-09-28T19:26:29.749Z,78.51
2022-09-28T19:28:58.316Z,78.59
2022-09-28T19:31:27.384Z,78.77
2022-09-28T19:33:56.440Z,78.87
2022-09-28T19:36:25.847Z,78.73
2022-09-28T19:38:53.764Z,78.98
2022-09-28T19:41:39.604Z,79.04
2022-09-28T19:44:15.797Z,79.10
2022-09-28T19:46:43.784Z,78.76
2022-09-28T19:49:13.768Z,78.54
2022-09-28T19:52:08.468Z,78.56
2022-09-28T19:54:36.301Z,78.96
2022-09-28T19:57:08.546Z,79.21
2022-09-28T19:59:36.890Z,79.23
2022-09-28T20:02:05.298Z,79.11
2022-09-28T20:04:34.297Z,79.46
2022-09-28T20:07:01.965Z,79.01
2022-09-28T20:09:29.785Z,79.54
2022-09-28T20:11:57.450Z,79.55
2022-09-28T20:14:26.276Z,79.88
2022-09-28T20:16:58.368Z,79.88
2022-09-28T20:19:26.620Z,79.66
2022-09-28T20:22:02.009Z,80.05
2022-09-28T20:24:29.850Z,80.46
2022-09-28T20:26:57.791Z,80.34
2022-09-28T20:29:25.555Z,80.41
2022-09-28T20:31:53.265Z,80.47
2022-09-28T20:34:20.912Z,80.29
2022-09-28T20:36:48.516Z,80.55
2022-09-28T20:39:17.574Z,80.42
2022-09-28T20:41:47.100Z,80.40
2022-09-28T20:44:14.867Z,80.50
2022-09-28T20:46:43.986Z,80.42
2022-09-28T20:49:11.796Z,80.61
2022-09-28T20:51:39.445Z,80.49
2022-09-28T20:54:07.138Z,80.52
2022-09-28T20:56:38.226Z,80.71
2022-09-28T20:59:07.767Z,80.63
2022-09-28T21:01:36.162Z,80.71
2022-09-28T21:04:05.668Z,80.77
2022-09-28T21:06:34.757Z,80.77
2022-09-28T21:09:03.216Z,81.02
2022-09-28T21:11:31.037Z,80.86
2022-09-28T21:14:01.701Z,80.87
2022-09-28T21:16:31.547Z,80.95
2022-09-28T21:18:59.889Z,81.00
2022-09-28T21:21:28.093Z,81.22
2022-09-28T21:23:56.551Z,81.08
2022-09-28T21:26:25.939Z,81.22
2022-09-28T21:28:54.615Z,81.24
2022-09-28T21:31:28.778Z,81.45
2022-09-28T21:33:57.358Z,81.00
2022-09-28T21:36:25.482Z,81.20
2022-09-28T21:38:53.460Z,80.93
2022-09-28T21:41:21.105Z,80.92
2022-09-28T21:43:48.701Z,81.22
2022-09-28T21:46:17.533Z,81.62
2022-09-28T21:48:46.597Z,81.31
2022-09-28T21:51:15.521Z,81.71
2022-09-28T21:53:43.580Z,81.69
2022-09-28T21:56:13.522Z,81.63
2022-09-28T21:58:41.461Z,81.67
2022-09-28T22:01:13.393Z,81.47
2022-09-28T22:03:41.877Z,81.67
2022-09-28T22:06:11.076Z,81.43
2022-09-28T22:08:39.598Z,81.44
2022-09-28T22:11:08.931Z,81.75
2022-09-28T22:13:40.013Z,81.41
2022-09-28T22:16:08.238Z,81.63
2022-09-28T22:18:36.001Z,81.46
2022-09-28T22:21:06.472Z,81.84
2022-09-28T22:23:36.543Z,81.20
2022-09-28T22:26:07.042Z,81.27
2022-09-28T22:28:35.027Z,81.44
2022-09-28T22:31:02.938Z,81.60
2022-09-28T22:33:30.704Z,82.09
2022-09-28T22:35:58.358Z,82.46
2022-09-28T22:38:26.182Z,82.22
2022-09-28T22:40:57.640Z,82.60
2022-09-28T22:43:26.765Z,82.05
2022-09-28T22:46:02.029Z,82.07
2022-09-28T22:48:29.829Z,82.29
2022-09-28T22:50:57.457Z,82.23
2022-09-28T22:53:25.114Z,82.05
2022-09-28T22:55:52.873Z,81.95
2022-09-28T22:58:21.870Z,82.38
2022-09-28T23:00:49.495Z,82.64
2022-09-28T23:03:17.725Z,82.31
2022-09-28T23:05:53.610Z,82.77
2022-09-28T23:08:21.633Z,82.43
2022-09-28T23:10:49.295Z,82.10
2022-09-28T23:13:17.250Z,82.57
2022-09-28T23:15:55.693Z,82.55
2022-09-28T23:18:23.435Z,82.44
2022-09-28T23:20:54.958Z,82.76
2022-09-28T23:23:23.079Z,82.68
2022-09-28T23:25:51.305Z,82.36
2022-09-28T23:28:19.066Z,82.50
2022-09-28T23:30:48.516Z,82.67
2022-09-28T23:33:17.654Z,82.79
2022-09-28T23:35:45.594Z,82.84
2022-09-28T23:38:14.285Z,82.40
2022-09-28T23:40:42.355Z,82.69
2022-09-28T23:43:09.987Z,83.21
2022-09-28T23:45:37.620Z,83.20
2022-09-28T23:48:06.733Z,83.05
2022-09-28T23:50:34.363Z,82.73
2022-09-28T23:53:01.999Z,83.64
2022-09-28T23:55:29.600Z,83.16
2022-09-28T23:57:58.649Z,82.81
